MET'MAP v2.0
soon released !

Expected late october,
this new version will be
more efficient, smarter,
and hosted on a brand new
server x3 powerfull...
...and still free !


Not compatible ?
Try the mobile version !

LOG IN : | Subscribe | Disclaimer | Who is Orbifly ? |
ICAO code :

TAF - LTBI Eskisehir - 02 Apr 2020 15:39 UTC - Data Source NOAA   


- Airport Elevation : 2581 ft
- IATA code : ESK
- No reported NOTAMs.


LTBI - Eskisehir

Latest METAR recorded : 2015/08/11 01:17 LTBI 110117Z 31003KT 9999 SCT035 BKN100 18/17 Q1013 RESHRA NOSIG RMK RWY09 28003KT
TAF AMD TAF LTBI
Valid from the 02 at 12:00 until the 02 at 21:00 UTC


021146Z 0212/0221 12008KT 9999 BKN030
TEMPO 0212/0215 20015KT -TSRA FEW025CB BKN030
PROB30 0215/0218 -SHRA

Source NOAA


MET'MAP, your aeronautical weather chart ! - Copyright ORBIFLY December 2007

Programming & Development : Alexandra Zaïnal
Co-Developer : Marc-Olivier Méhu
Technical & hardware support : Manuel Goepfert
Concept & Financing : Baudouin d'Aumeries